sensor_id;sensor_type;location;lat;lon;timestamp;pressure;altitude;pressure_sealevel;temperature;humidity
20909;BME280;10614;53.198;6.570;2023-05-23T00:01:36;101663.25;;;13.51;100.00
20909;BME280;10614;53.198;6.570;2023-05-23T00:03:42;101668.59;;;13.49;100.00
20909;BME280;10614;53.198;6.570;2023-05-23T00:05:44;101655.50;;;13.46;100.00
20909;BME280;10614;53.198;6.570;2023-05-23T00:07:47;101670.38;;;13.49;100.00
20909;BME280;10614;53.198;6.570;2023-05-23T00:09:49;101673.72;;;13.54;100.00
20909;BME280;10614;53.198;6.570;2023-05-23T00:11:51;101670.25;;;13.52;100.00
20909;BME280;10614;53.198;6.570;2023-05-23T00:13:54;101670.94;;;13.57;100.00
20909;BME280;10614;53.198;6.570;2023-05-23T00:15:56;101675.31;;;13.58;100.00
20909;BME280;10614;53.198;6.570;2023-05-23T00:18:03;101674.44;;;13.58;100.00
20909;BME280;10614;53.198;6.570;2023-05-23T00:20:06;101680.66;;;13.57;100.00
20909;BME280;10614;53.198;6.570;2023-05-23T00:22:11;101682.28;;;13.61;100.00
20909;BME280;10614;53.198;6.570;2023-05-23T00:24:15;101669.09;;;13.59;100.00
20909;BME280;10614;53.198;6.570;2023-05-23T00:26:17;101682.38;;;13.58;100.00
20909;BME280;10614;53.198;6.570;2023-05-23T00:28:21;101668.38;;;13.56;100.00
20909;BME280;10614;53.198;6.570;2023-05-23T00:30:25;101682.50;;;13.55;100.00
20909;BME280;10614;53.198;6.570;2023-05-23T00:32:29;101682.72;;;13.48;100.00
20909;BME280;10614;53.198;6.570;2023-05-23T00:34:31;101673.13;;;13.46;100.00
20909;BME280;10614;53.198;6.570;2023-05-23T00:36:33;101677.56;;;13.45;100.00
20909;BME280;10614;53.198;6.570;2023-05-23T00:38:37;101684.69;;;13.43;100.00
20909;BME280;10614;53.198;6.570;2023-05-23T00:40:40;101697.88;;;13.45;100.00
20909;BME280;10614;53.198;6.570;2023-05-23T00:42:42;101690.09;;;13.40;100.00
20909;BME280;10614;53.198;6.570;2023-05-23T00:44:45;101684.69;;;13.43;100.00
20909;BME280;10614;53.198;6.570;2023-05-23T00:46:53;101713.69;;;13.46;100.00
20909;BME280;10614;53.198;6.570;2023-05-23T00:48:57;101690.78;;;13.45;100.00
20909;BME280;10614;53.198;6.570;2023-05-23T00:51:00;101689.75;;;13.49;100.00
20909;BME280;10614;53.198;6.570;2023-05-23T00:53:05;101701.31;;;13.47;100.00
20909;BME280;10614;53.198;6.570;2023-05-23T00:55:08;101702.19;;;13.47;100.00
20909;BME280;10614;53.198;6.570;2023-05-23T00:57:10;101697.81;;;13.46;100.00
20909;BME280;10614;53.198;6.570;2023-05-23T00:59:12;101704.25;;;13.39;100.00
20909;BME280;10614;53.198;6.570;2023-05-23T01:01:14;101704.09;;;13.44;100.00
20909;BME280;10614;53.198;6.570;2023-05-23T01:03:19;101713.06;;;13.40;100.00
20909;BME280;10614;53.198;6.570;2023-05-23T01:05:23;101743.03;;;13.39;100.00
20909;BME280;10614;53.198;6.570;2023-05-23T01:07:25;101724.84;;;13.31;100.00
20909;BME280;10614;53.198;6.570;2023-05-23T01:09:27;101725.09;;;13.23;100.00
20909;BME280;10614;53.198;6.570;2023-05-23T01:11:38;101731.41;;;13.19;100.00
20909;BME280;10614;53.198;6.570;2023-05-23T01:13:51;101731.19;;;13.25;100.00
20909;BME280;10614;53.198;6.570;2023-05-23T01:16:01;101731.13;;;13.27;100.00
20909;BME280;10614;53.198;6.570;2023-05-23T01:18:07;101724.03;;;13.29;100.00
20909;BME280;10614;53.198;6.570;2023-05-23T01:20:14;101719.50;;;13.33;100.00
20909;BME280;10614;53.198;6.570;2023-05-23T01:22:21;101739.88;;;13.29;100.00
20909;BME280;10614;53.198;6.570;2023-05-23T01:24:33;101732.91;;;13.26;100.00
20909;BME280;10614;53.198;6.570;2023-05-23T01:26:50;101743.53;;;13.25;100.00
20909;BME280;10614;53.198;6.570;2023-05-23T01:29:02;101738.41;;;13.20;100.00
20909;BME280;10614;53.198;6.570;2023-05-23T01:31:09;101751.00;;;13.14;100.00
20909;BME280;10614;53.198;6.570;2023-05-23T01:33:14;101752.94;;;13.08;100.00
20909;BME280;10614;53.198;6.570;2023-05-23T01:35:23;101748.03;;;12.98;100.00
20909;BME280;10614;53.198;6.570;2023-05-23T01:37:25;101756.19;;;12.92;100.00
20909;BME280;10614;53.198;6.570;2023-05-23T01:39:29;101748.41;;;12.87;100.00
20909;BME280;10614;53.198;6.570;2023-05-23T01:41:31;101762.63;;;12.83;100.00
20909;BME280;10614;53.198;6.570;2023-05-23T01:43:33;101738.28;;;12.75;100.00
20909;BME280;10614;53.198;6.570;2023-05-23T01:45:36;101762.06;;;12.75;100.00
20909;BME280;10614;53.198;6.570;2023-05-23T01:47:39;101757.69;;;12.74;100.00
20909;BME280;10614;53.198;6.570;2023-05-23T01:49:42;101769.97;;;12.75;100.00
20909;BME280;10614;53.198;6.570;2023-05-23T01:51:45;101773.75;;;12.67;100.00
20909;BME280;10614;53.198;6.570;2023-05-23T01:53:48;101780.19;;;12.59;100.00
20909;BME280;10614;53.198;6.570;2023-05-23T01:55:50;101759.19;;;12.56;100.00
20909;BME280;10614;53.198;6.570;2023-05-23T01:57:54;101769.72;;;12.57;100.00
20909;BME280;10614;53.198;6.570;2023-05-23T01:59:57;101775.00;;;12.57;100.00
20909;BME280;10614;53.198;6.570;2023-05-23T02:02:02;101777.03;;;12.48;100.00
20909;BME280;10614;53.198;6.570;2023-05-23T02:04:08;101771.75;;;12.48;100.00
20909;BME280;10614;53.198;6.570;2023-05-23T02:06:10;101766.75;;;12.40;100.00
20909;BME280;10614;53.198;6.570;2023-05-23T02:08:12;101785.53;;;12.31;100.00
20909;BME280;10614;53.198;6.570;2023-05-23T02:10:14;101781.09;;;12.31;100.00
20909;BME280;10614;53.198;6.570;2023-05-23T02:12:16;101784.94;;;12.21;100.00
20909;BME280;10614;53.198;6.570;2023-05-23T02:14:18;101753.00;;;12.02;100.00
20909;BME280;10614;53.198;6.570;2023-05-23T02:16:19;101785.00;;;12.19;100.00
20909;BME280;10614;53.198;6.570;2023-05-23T02:18:23;101791.31;;;12.15;100.00
20909;BME280;10614;53.198;6.570;2023-05-23T02:20:28;101797.44;;;12.16;100.00
20909;BME280;10614;53.198;6.570;2023-05-23T02:22:30;101799.38;;;12.11;100.00
20909;BME280;10614;53.198;6.570;2023-05-23T02:24:32;101798.69;;;12.04;100.00
20909;BME280;10614;53.198;6.570;2023-05-23T02:26:34;101789.03;;;12.03;100.00
20909;BME280;10614;53.198;6.570;2023-05-23T02:28:37;101811.94;;;12.01;100.00
20909;BME280;10614;53.198;6.570;2023-05-23T02:30:40;101807.88;;;11.91;100.00
20909;BME280;10614;53.198;6.570;2023-05-23T02:32:42;101829.31;;;11.78;100.00
20909;BME280;10614;53.198;6.570;2023-05-23T02:34:45;101806.13;;;11.60;100.00
20909;BME280;10614;53.198;6.570;2023-05-23T02:36:51;101820.34;;;11.54;100.00
20909;BME280;10614;53.198;6.570;2023-05-23T02:38:53;101813.66;;;11.43;100.00
20909;BME280;10614;53.198;6.570;2023-05-23T02:40:55;101809.50;;;11.34;100.00
20909;BME280;10614;53.198;6.570;2023-05-23T02:42:57;101821.03;;;11.30;100.00
20909;BME280;10614;53.198;6.570;2023-05-23T02:44:59;101836.22;;;11.20;100.00
20909;BME280;10614;53.198;6.570;2023-05-23T02:47:01;101822.31;;;11.15;100.00
20909;BME280;10614;53.198;6.570;2023-05-23T02:49:03;101822.38;;;11.12;100.00
20909;BME280;10614;53.198;6.570;2023-05-23T02:51:07;101819.72;;;11.12;100.00
20909;BME280;10614;53.198;6.570;2023-05-23T02:53:09;101835.50;;;11.13;100.00
20909;BME280;10614;53.198;6.570;2023-05-23T02:55:12;101828.66;;;11.08;100.00
20909;BME280;10614;53.198;6.570;2023-05-23T02:57:14;101826.78;;;11.11;100.00
20909;BME280;10614;53.198;6.570;2023-05-23T02:59:16;101822.38;;;11.12;100.00
20909;BME280;10614;53.198;6.570;2023-05-23T03:01:18;101838.28;;;11.09;100.00
20909;BME280;10614;53.198;6.570;2023-05-23T03:03:20;101832.13;;;11.08;100.00
20909;BME280;10614;53.198;6.570;2023-05-23T03:05:21;101825.13;;;11.07;100.00
20909;BME280;10614;53.198;6.570;2023-05-23T03:07:25;101819.81;;;11.09;100.00
20909;BME280;10614;53.198;6.570;2023-05-23T03:09:26;101823.19;;;11.14;100.00
20909;BME280;10614;53.198;6.570;2023-05-23T03:11:28;101839.75;;;11.19;100.00
20909;BME280;10614;53.198;6.570;2023-05-23T03:13:30;101832.75;;;11.18;100.00
20909;BME280;10614;53.198;6.570;2023-05-23T03:15:32;101834.41;;;11.22;100.00
20909;BME280;10614;53.198;6.570;2023-05-23T03:17:34;101829.19;;;11.19;100.00
20909;BME280;10614;53.198;6.570;2023-05-23T03:19:36;101830.94;;;11.20;100.00
20909;BME280;10614;53.198;6.570;2023-05-23T03:21:37;101829.06;;;11.24;100.00
20909;BME280;10614;53.198;6.570;2023-05-23T03:23:41;101820.19;;;11.28;100.00
20909;BME280;10614;53.198;6.570;2023-05-23T03:25:43;101835.97;;;11.29;100.00
20909;BME280;10614;53.198;6.570;2023-05-23T03:27:45;101838.41;;;11.37;100.00
20909;BME280;10614;53.198;6.570;2023-05-23T03:29:47;101862.97;;;11.37;100.00
20909;BME280;10614;53.198;6.570;2023-05-23T03:31:49;101854.25;;;11.35;100.00
20909;BME280;10614;53.198;6.570;2023-05-23T03:33:51;101849.03;;;11.34;100.00
20909;BME280;10614;53.198;6.570;2023-05-23T03:35:53;101850.69;;;11.38;100.00
20909;BME280;10614;53.198;6.570;2023-05-23T03:37:56;101855.19;;;11.33;100.00
20909;BME280;10614;53.198;6.570;2023-05-23T03:40:00;101863.03;;;11.36;100.00
20909;BME280;10614;53.198;6.570;2023-05-23T03:42:01;101862.97;;;11.37;100.00
20909;BME280;10614;53.198;6.570;2023-05-23T03:44:03;101868.34;;;11.34;100.00
20909;BME280;10614;53.198;6.570;2023-05-23T03:46:05;101863.16;;;11.31;100.00
20909;BME280;10614;53.198;6.570;2023-05-23T03:48:07;101864.13;;;11.27;100.00
20909;BME280;10614;53.198;6.570;2023-05-23T03:50:10;101869.31;;;11.30;100.00
20909;BME280;10614;53.198;6.570;2023-05-23T03:52:12;101879.88;;;11.30;100.00
20909;BME280;10614;53.198;6.570;2023-05-23T03:54:14;101874.56;;;11.32;100.00
20909;BME280;10614;53.198;6.570;2023-05-23T03:56:18;101881.63;;;11.31;100.00
20909;BME280;10614;53.198;6.570;2023-05-23T03:58:20;101873.84;;;11.25;100.00
20909;BME280;10614;53.198;6.570;2023-05-23T04:00:23;101877.31;;;11.27;100.00
20909;BME280;10614;53.198;6.570;2023-05-23T04:02:25;101882.56;;;11.29;100.00
20909;BME280;10614;53.198;6.570;2023-05-23T04:04:28;101883.50;;;11.26;100.00
20909;BME280;10614;53.198;6.570;2023-05-23T04:06:30;101882.59;;;11.27;100.00
20909;BME280;10614;53.198;6.570;2023-05-23T04:08:32;101899.22;;;11.29;100.00
20909;BME280;10614;53.198;6.570;2023-05-23T04:10:34;101895.75;;;11.27;100.00
20909;BME280;10614;53.198;6.570;2023-05-23T04:12:38;101905.38;;;11.28;100.00
20909;BME280;10614;53.198;6.570;2023-05-23T04:14:41;101910.72;;;11.27;100.00
20909;BME280;10614;53.198;6.570;2023-05-23T04:16:45;101886.31;;;11.18;100.00
20909;BME280;10614;53.198;6.570;2023-05-23T04:18:48;101898.63;;;11.18;100.00
20909;BME280;10614;53.198;6.570;2023-05-23T04:20:51;101900.25;;;11.24;100.00
20909;BME280;10614;53.198;6.570;2023-05-23T04:22:54;101904.59;;;11.26;100.00
20909;BME280;10614;53.198;6.570;2023-05-23T04:24:57;101901.97;;;11.26;100.00
20909;BME280;10614;53.198;6.570;2023-05-23T04:26:58;101891.28;;;11.31;100.00
20909;BME280;10614;53.198;6.570;2023-05-23T04:29:02;101910.50;;;11.36;100.00
20909;BME280;10614;53.198;6.570;2023-05-23T04:31:05;101918.41;;;11.34;100.00
20909;BME280;10614;53.198;6.570;2023-05-23T04:33:09;101899.22;;;11.29;100.00
20909;BME280;10614;53.198;6.570;2023-05-23T04:35:11;101921.03;;;11.36;100.00
20909;BME280;10614;53.198;6.570;2023-05-23T04:37:13;101892.09;;;11.33;100.00
20909;BME280;10614;53.198;6.570;2023-05-23T04:39:16;101920.09;;;11.38;100.00
20909;BME280;10614;53.198;6.570;2023-05-23T04:41:19;101946.44;;;11.38;100.00
20909;BME280;10614;53.198;6.570;2023-05-23T04:43:23;101943.84;;;11.37;100.00
20909;BME280;10614;53.198;6.570;2023-05-23T04:45:30;101935.09;;;11.35;100.00
20909;BME280;10614;53.198;6.570;2023-05-23T04:47:32;101942.13;;;11.36;100.00
20909;BME280;10614;53.198;6.570;2023-05-23T04:49:42;101918.69;;;11.24;100.00
20909;BME280;10614;53.198;6.570;2023-05-23T04:51:45;101926.69;;;11.20;100.00
20909;BME280;10614;53.198;6.570;2023-05-23T04:53:48;101939.00;;;11.20;100.00
20909;BME280;10614;53.198;6.570;2023-05-23T04:55:50;101966.81;;;11.32;100.00
20909;BME280;10614;53.198;6.570;2023-05-23T04:57:52;101956.41;;;11.26;100.00
20909;BME280;10614;53.198;6.570;2023-05-23T04:59:54;101975.81;;;11.23;100.00
20909;BME280;10614;53.198;6.570;2023-05-23T05:01:59;101954.78;;;11.22;100.00
20909;BME280;10614;53.198;6.570;2023-05-23T05:04:00;101964.56;;;11.16;100.00
20909;BME280;10614;53.198;6.570;2023-05-23T05:06:02;101972.50;;;11.15;100.00
20909;BME280;10614;53.198;6.570;2023-05-23T05:08:05;101961.28;;;11.07;100.00
20909;BME280;10614;53.198;6.570;2023-05-23T05:10:08;101966.44;;;11.11;100.00
20909;BME280;10614;53.198;6.570;2023-05-23T05:20:57;101974.94;;;10.87;100.00
20909;BME280;10614;53.198;6.570;2023-05-23T05:22:59;101980.22;;;10.87;100.00
20909;BME280;10614;53.198;6.570;2023-05-23T05:25:00;101957.91;;;10.63;100.00
20909;BME280;10614;53.198;6.570;2023-05-23T05:27:03;102001.22;;;10.88;100.00
20909;BME280;10614;53.198;6.570;2023-05-23T05:29:05;101994.34;;;10.83;100.00
20909;BME280;10614;53.198;6.570;2023-05-23T05:31:07;102011.00;;;10.83;100.00
20909;BME280;10614;53.198;6.570;2023-05-23T05:33:09;102007.41;;;10.87;100.00
20909;BME280;10614;53.198;6.570;2023-05-23T05:35:11;102013.53;;;10.88;100.00
20909;BME280;10614;53.198;6.570;2023-05-23T05:37:15;102013.50;;;10.89;100.00
20909;BME280;10614;53.198;6.570;2023-05-23T05:39:17;102015.97;;;10.95;100.00
20909;BME280;10614;53.198;6.570;2023-05-23T05:41:19;102022.25;;;10.91;100.00
20909;BME280;10614;53.198;6.570;2023-05-23T05:43:21;102017.94;;;10.87;100.00
20909;BME280;10614;53.198;6.570;2023-05-23T05:45:26;102004.00;;;10.82;100.00
20909;BME280;10614;53.198;6.570;2023-05-23T05:47:28;102000.53;;;10.80;100.00
20909;BME280;10614;53.198;6.570;2023-05-23T05:49:31;101987.56;;;10.71;100.00
20909;BME280;10614;53.198;6.570;2023-05-23T05:51:35;102028.16;;;11.01;100.00
20909;BME280;10614;53.198;6.570;2023-05-23T05:53:44;102031.59;;;11.05;100.00
20909;BME280;10614;53.198;6.570;2023-05-23T05:55:46;102010.59;;;11.02;100.00
20909;BME280;10614;53.198;6.570;2023-05-23T05:57:48;102041.06;;;11.13;100.00
20909;BME280;10614;53.198;6.570;2023-05-23T05:59:53;102041.91;;;11.14;100.00
20909;BME280;10614;53.198;6.570;2023-05-23T06:05:01;102011.66;;;10.93;100.00
20909;BME280;10614;53.198;6.570;2023-05-23T06:07:11;102052.47;;;11.14;100.00
20909;BME280;10614;53.198;6.570;2023-05-23T06:09:17;102058.75;;;11.08;100.00
20909;BME280;10614;53.198;6.570;2023-05-23T06:11:20;102068.47;;;11.05;100.00
20909;BME280;10614;53.198;6.570;2023-05-23T06:13:22;102050.97;;;11.02;100.00
20909;BME280;10614;53.198;6.570;2023-05-23T06:15:24;102081.72;;;11.02;100.00
20909;BME280;10614;53.198;6.570;2023-05-23T06:17:28;102061.66;;;10.96;100.00
20909;BME280;10614;53.198;6.570;2023-05-23T06:19:30;102066.13;;;10.92;100.00
20909;BME280;10614;53.198;6.570;2023-05-23T06:21:33;102062.53;;;10.96;100.00
20909;BME280;10614;53.198;6.570;2023-05-23T06:23:37;102066.00;;;10.97;100.00
20909;BME280;10614;53.198;6.570;2023-05-23T06:25:40;102066.13;;;10.92;100.00
20909;BME280;10614;53.198;6.570;2023-05-23T06:27:43;102057.63;;;10.80;100.00
20909;BME280;10614;53.198;6.570;2023-05-23T06:29:45;102054.25;;;10.73;100.00
20909;BME280;10614;53.198;6.570;2023-05-23T06:32:01;102072.25;;;10.93;100.00
20909;BME280;10614;53.198;6.570;2023-05-23T06:36:19;102078.25;;;10.99;100.00
20909;BME280;10614;53.198;6.570;2023-05-23T06:38:21;102061.59;;;10.99;100.00
20909;BME280;10614;53.198;6.570;2023-05-23T06:40:23;102068.13;;;11.20;100.00
20909;BME280;10614;53.198;6.570;2023-05-23T06:42:29;102081.88;;;11.34;100.00
20909;BME280;10614;53.198;6.570;2023-05-23T06:44:30;102108.03;;;11.42;100.00
20909;BME280;10614;53.198;6.570;2023-05-23T06:46:35;102085.41;;;11.33;100.00
20909;BME280;10614;53.198;6.570;2023-05-23T06:48:41;102077.34;;;11.39;100.00
20909;BME280;10614;53.198;6.570;2023-05-23T06:50:47;102091.13;;;11.52;100.00
20909;BME280;10614;53.198;6.570;2023-05-23T06:52:51;102110.31;;;11.57;100.00
20909;BME280;10614;53.198;6.570;2023-05-23T06:54:58;102111.19;;;11.58;100.00
20909;BME280;10614;53.198;6.570;2023-05-23T06:56:59;102079.03;;;11.42;100.00
20909;BME280;10614;53.198;6.570;2023-05-23T06:59:03;102124.28;;;11.61;100.00
20909;BME280;10614;53.198;6.570;2023-05-23T07:01:05;102122.75;;;11.52;100.00
20909;BME280;10614;53.198;6.570;2023-05-23T07:03:11;102123.50;;;11.57;100.00
20909;BME280;10614;53.198;6.570;2023-05-23T07:05:13;102129.63;;;11.59;100.00
20909;BME280;10614;53.198;6.570;2023-05-23T07:07:20;102120.84;;;11.59;100.00
20909;BME280;10614;53.198;6.570;2023-05-23T07:09:21;102124.03;;;11.72;100.00
20909;BME280;10614;53.198;6.570;2023-05-23T07:11:23;102123.19;;;11.71;100.00
20909;BME280;10614;53.198;6.570;2023-05-23T07:13:26;102129.53;;;11.62;100.00
20909;BME280;10614;53.198;6.570;2023-05-23T07:15:29;102127.94;;;11.57;100.00
20909;BME280;10614;53.198;6.570;2023-05-23T07:17:31;102127.13;;;11.52;100.00
20909;BME280;10614;53.198;6.570;2023-05-23T07:19:33;102143.78;;;11.55;100.00
20909;BME280;10614;53.198;6.570;2023-05-23T09:30:26;102261.00;;;13.21;85.19
20909;BME280;10614;53.198;6.570;2023-05-23T09:32:28;102238.66;;;13.33;88.03
20909;BME280;10614;53.198;6.570;2023-05-23T09:34:29;102237.41;;;13.46;89.32
20909;BME280;10614;53.198;6.570;2023-05-23T09:36:32;102208.19;;;13.49;86.58
20909;BME280;10614;53.198;6.570;2023-05-23T09:38:37;102238.06;;;13.81;91.35
20909;BME280;10614;53.198;6.570;2023-05-23T09:40:44;102258.53;;;13.76;82.72
20909;BME280;10614;53.198;6.570;2023-05-23T09:42:46;102231.97;;;13.51;80.96
20909;BME280;10614;53.198;6.570;2023-05-23T09:44:49;102244.28;;;13.52;84.96
20909;BME280;10614;53.198;6.570;2023-05-23T09:46:53;102239.00;;;13.80;86.62
20909;BME280;10614;53.198;6.570;2023-05-23T09:48:59;102250.56;;;14.06;88.84
20909;BME280;10614;53.198;6.570;2023-05-23T09:51:05;102244.00;;;14.18;84.13
20909;BME280;10614;53.198;6.570;2023-05-23T09:53:07;102259.88;;;14.18;81.52
20909;BME280;10614;53.198;6.570;2023-05-23T09:55:09;102249.25;;;14.19;80.50
20909;BME280;10614;53.198;6.570;2023-05-23T09:57:14;102258.66;;;14.28;80.90
20909;BME280;10614;53.198;6.570;2023-05-23T09:59:17;102269.97;;;14.33;81.52
20909;BME280;10614;53.198;6.570;2023-05-23T10:01:24;102271.88;;;14.28;78.87
20909;BME280;10614;53.198;6.570;2023-05-23T10:03:32;102294.63;;;14.07;77.93
20909;BME280;10614;53.198;6.570;2023-05-23T10:05:37;102262.00;;;13.78;77.51
20909;BME280;10614;53.198;6.570;2023-05-23T10:07:40;102264.03;;;13.70;78.87
20909;BME280;10614;53.198;6.570;2023-05-23T10:09:46;102253.50;;;13.67;78.98
20909;BME280;10614;53.198;6.570;2023-05-23T10:14:28;102267.50;;;14.00;80.63
20909;BME280;10614;53.198;6.570;2023-05-23T14:38:41;102379.47;;;19.44;48.66
20909;BME280;10614;53.198;6.570;2023-05-23T14:40:51;102287.38;;;19.02;46.95
20909;BME280;10614;53.198;6.570;2023-05-23T14:42:56;102296.84;;;19.25;45.12
20909;BME280;10614;53.198;6.570;2023-05-23T14:44:58;102329.78;;;19.24;44.72
20909;BME280;10614;53.198;6.570;2023-05-23T14:47:06;102300.84;;;18.98;45.81
20909;BME280;10614;53.198;6.570;2023-05-23T14:49:11;102325.97;;;18.77;47.45
20909;BME280;10614;53.198;6.570;2023-05-23T14:51:16;102371.16;;;19.32;46.14
20909;BME280;10614;53.198;6.570;2023-05-23T14:53:25;102350.50;;;19.36;43.54
20909;BME280;10614;53.198;6.570;2023-05-23T14:55:28;102304.00;;;19.07;43.05
20909;BME280;10614;53.198;6.570;2023-05-23T14:57:36;102370.56;;;19.27;43.16
20909;BME280;10614;53.198;6.570;2023-05-23T14:59:46;102323.28;;;18.60;43.32
20909;BME280;10614;53.198;6.570;2023-05-23T15:01:58;102299.13;;;18.63;44.20
20909;BME280;10614;53.198;6.570;2023-05-23T15:04:19;102286.22;;;18.00;45.06
20909;BME280;10614;53.198;6.570;2023-05-23T15:06:25;102292.03;;;18.27;45.08
20909;BME280;10614;53.198;6.570;2023-05-23T15:08:40;102376.16;;;19.38;46.18
20909;BME280;10614;53.198;6.570;2023-05-23T15:10:48;102321.66;;;19.09;41.94
20909;BME280;10614;53.198;6.570;2023-05-23T15:12:54;102305.81;;;18.18;43.80
20909;BME280;10614;53.198;6.570;2023-05-23T15:15:09;102298.50;;;17.26;45.11
20909;BME280;10614;53.198;6.570;2023-05-23T15:17:12;102275.63;;;17.02;49.41
20909;BME280;10614;53.198;6.570;2023-05-23T15:19:20;102325.47;;;18.15;46.63
20909;BME280;10614;53.198;6.570;2023-05-23T15:21:32;102402.00;;;19.38;45.07
20909;BME280;10614;53.198;6.570;2023-05-23T15:23:36;102332.44;;;19.74;41.72
20909;BME280;10614;53.198;6.570;2023-05-23T15:25:38;102315.72;;;19.87;42.50
20909;BME280;10614;53.198;6.570;2023-05-23T15:27:40;102307.09;;;20.13;41.23
20909;BME280;10614;53.198;6.570;2023-05-23T15:29:44;102353.66;;;20.57;41.26
20909;BME280;10614;53.198;6.570;2023-05-23T15:31:55;102395.75;;;20.06;40.86
20909;BME280;10614;53.198;6.570;2023-05-23T15:34:12;102359.41;;;19.02;41.52
20909;BME280;10614;53.198;6.570;2023-05-23T15:36:15;102346.88;;;18.50;42.77
20909;BME280;10614;53.198;6.570;2023-05-23T15:38:19;102386.34;;;18.05;43.29
20909;BME280;10614;53.198;6.570;2023-05-23T15:40:31;102318.03;;;17.25;44.74
20909;BME280;10614;53.198;6.570;2023-05-23T15:42:57;102298.28;;;16.70;46.77
20909;BME280;10614;53.198;6.570;2023-05-23T15:47:58;102365.78;;;18.07;47.84
20909;BME280;10614;53.198;6.570;2023-05-23T15:50:14;102362.44;;;17.85;47.68
20909;BME280;10614;53.198;6.570;2023-05-23T15:52:35;102331.47;;;17.43;47.05
20909;BME280;10614;53.198;6.570;2023-05-23T15:54:46;102300.84;;;18.10;48.12
20909;BME280;10614;53.198;6.570;2023-05-23T15:56:52;102340.88;;;19.82;44.31
20909;BME280;10614;53.198;6.570;2023-05-23T15:59:11;102315.91;;;19.84;41.84
20909;BME280;10614;53.198;6.570;2023-05-23T16:01:14;102313.13;;;19.69;43.51
20909;BME280;10614;53.198;6.570;2023-05-23T16:03:27;102379.69;;;20.99;45.67
20909;BME280;10614;53.198;6.570;2023-05-23T16:05:30;102362.91;;;21.98;42.79
20909;BME280;10614;53.198;6.570;2023-05-23T16:07:37;102374.38;;;22.28;38.65
20909;BME280;10614;53.198;6.570;2023-05-23T16:09:45;102302.59;;;21.63;40.26
20909;BME280;10614;53.198;6.570;2023-05-23T16:11:47;102348.53;;;22.27;42.62
20909;BME280;10614;53.198;6.570;2023-05-23T16:13:55;102321.63;;;22.42;38.33
20909;BME280;10614;53.198;6.570;2023-05-23T16:16:16;102396.13;;;23.05;37.45
20909;BME280;10614;53.198;6.570;2023-05-23T16:18:35;102318.44;;;22.49;36.05
20909;BME280;10614;53.198;6.570;2023-05-23T16:20:44;102318.50;;;22.35;36.71
20909;BME280;10614;53.198;6.570;2023-05-23T16:22:57;102370.03;;;21.70;34.95
20909;BME280;10614;53.198;6.570;2023-05-23T16:25:06;102329.50;;;20.27;39.48
20909;BME280;10614;53.198;6.570;2023-05-23T16:27:21;102293.50;;;19.19;41.32
20909;BME280;10614;53.198;6.570;2023-05-23T16:29:47;102307.28;;;18.60;41.24
20909;BME280;10614;53.198;6.570;2023-05-23T16:31:58;102394.97;;;18.66;42.81
20909;BME280;10614;53.198;6.570;2023-05-23T16:34:47;102295.22;;;17.59;41.59
20909;BME280;10614;53.198;6.570;2023-05-23T16:43:29;102384.03;;;16.75;47.27
20909;BME280;10614;53.198;6.570;2023-05-23T16:45:42;102364.84;;;16.46;47.09
20909;BME280;10614;53.198;6.570;2023-05-23T16:47:45;102361.22;;;16.03;49.12
20909;BME280;10614;53.198;6.570;2023-05-23T16:49:48;102373.25;;;16.79;49.49
20909;BME280;10614;53.198;6.570;2023-05-23T17:09:17;102377.19;;;16.25;50.08
20909;BME280;10614;53.198;6.570;2023-05-23T17:11:33;102413.81;;;15.93;50.33
20909;BME280;10614;53.198;6.570;2023-05-23T17:13:41;102399.47;;;15.49;52.80
20909;BME280;10614;53.198;6.570;2023-05-23T17:15:47;102378.41;;;15.44;54.28
20909;BME280;10614;53.198;6.570;2023-05-23T17:17:49;102408.28;;;16.67;52.79
20909;BME280;10614;53.198;6.570;2023-05-23T17:19:51;102368.34;;;17.71;50.27
20909;BME280;10614;53.198;6.570;2023-05-23T17:21:57;102352.78;;;18.74;46.42
20909;BME280;10614;53.198;6.570;2023-05-23T17:24:03;102405.94;;;19.48;43.13
20909;BME280;10614;53.198;6.570;2023-05-23T17:26:13;102394.56;;;19.27;42.72
20909;BME280;10614;53.198;6.570;2023-05-23T17:28:18;102348.41;;;19.08;43.26
20909;BME280;10614;53.198;6.570;2023-05-23T17:30:20;102392.16;;;19.73;43.16
20909;BME280;10614;53.198;6.570;2023-05-23T17:47:52;102398.75;;;17.26;47.30
20909;BME280;10614;53.198;6.570;2023-05-23T17:49:54;102409.44;;;16.83;49.29
20909;BME280;10614;53.198;6.570;2023-05-23T17:51:58;102423.28;;;16.24;49.93
20909;BME280;10614;53.198;6.570;2023-05-23T17:54:04;102413.53;;;15.52;51.64
20909;BME280;10614;53.198;6.570;2023-05-23T17:56:06;102417.75;;;15.06;53.78
20909;BME280;10614;53.198;6.570;2023-05-23T17:58:10;102421.72;;;15.45;54.00
20909;BME280;10614;53.198;6.570;2023-05-23T18:00:12;102410.34;;;15.91;53.14
20909;BME280;10614;53.198;6.570;2023-05-23T18:02:15;102415.47;;;16.65;51.71
20909;BME280;10614;53.198;6.570;2023-05-23T18:04:19;102404.09;;;17.26;50.25
20909;BME280;10614;53.198;6.570;2023-05-23T18:06:21;102407.72;;;17.85;49.07
20909;BME280;10614;53.198;6.570;2023-05-23T18:08:22;102419.56;;;18.53;48.99
20909;BME280;10614;53.198;6.570;2023-05-23T18:10:24;102417.44;;;18.43;47.41
20909;BME280;10614;53.198;6.570;2023-05-23T18:12:26;102421.41;;;18.34;47.46
20909;BME280;10614;53.198;6.570;2023-05-23T18:14:29;102418.81;;;18.13;47.12
20909;BME280;10614;53.198;6.570;2023-05-23T18:27:26;102422.94;;;15.86;53.13